createdAt,value
2023-02-27T00:01:47.712Z,20.20
2023-02-27T00:04:20.939Z,17.60
2023-02-27T00:06:54.731Z,15.20
2023-02-27T00:09:28.486Z,12.20
2023-02-27T00:12:01.793Z,12.30
2023-02-27T00:14:34.869Z,14.50
2023-02-27T00:17:08.269Z,14.10
2023-02-27T00:19:41.333Z,10.80
2023-02-27T00:22:14.414Z,11.20
2023-02-27T00:24:47.390Z,14.40
2023-02-27T00:27:20.431Z,14.30
2023-02-27T00:29:53.415Z,15.80
2023-02-27T00:32:26.681Z,10.70
2023-02-27T00:34:59.690Z,13.70
2023-02-27T00:37:32.808Z,13.20
2023-02-27T00:40:06.739Z,13.70
2023-02-27T00:42:40.212Z,11.20
2023-02-27T00:45:14.981Z,17.40
2023-02-27T00:47:48.231Z,18.10
2023-02-27T00:50:21.753Z,14.20
2023-02-27T00:52:54.813Z,16.90
2023-02-27T00:55:27.957Z,11.90
2023-02-27T00:58:01.039Z,12.30
2023-02-27T01:00:34.198Z,9.70
2023-02-27T01:03:07.530Z,14.40
2023-02-27T01:05:40.855Z,11.90
2023-02-27T01:08:14.596Z,15.80
2023-02-27T01:10:47.840Z,14.30
2023-02-27T01:13:20.881Z,8.70
2023-02-27T01:15:54.206Z,10.80
2023-02-27T01:18:27.336Z,9.50
2023-02-27T01:21:01.824Z,14.60
2023-02-27T01:23:34.973Z,10.20
2023-02-27T01:26:08.338Z,9.20
2023-02-27T01:28:41.497Z,11.40
2023-02-27T01:31:15.102Z,16.70
2023-02-27T01:33:49.264Z,11.00
2023-02-27T01:36:22.491Z,13.80
2023-02-27T01:38:55.578Z,12.10
2023-02-27T01:41:30.042Z,11.30
2023-02-27T01:44:06.602Z,11.00
2023-02-27T01:46:40.449Z,13.00
2023-02-27T01:49:19.127Z,8.60
2023-02-27T01:52:02.099Z,14.90
2023-02-27T01:54:38.105Z,12.50
2023-02-27T01:57:11.806Z,9.90
2023-02-27T01:59:45.921Z,10.80
2023-02-27T02:02:25.615Z,11.70
2023-02-27T02:05:00.454Z,9.60
2023-02-27T02:07:34.877Z,8.30
2023-02-27T02:10:09.876Z,10.70
2023-02-27T02:12:44.296Z,10.90
2023-02-27T02:15:18.348Z,12.50
2023-02-27T02:18:03.389Z,11.00
2023-02-27T02:21:33.889Z,9.30
2023-02-27T02:25:18.005Z,11.80
2023-02-27T02:28:18.659Z,9.40
2023-02-27T02:31:29.493Z,10.70
2023-02-27T02:34:34.893Z,10.30
2023-02-27T02:37:46.098Z,11.10
2023-02-27T02:40:33.439Z,9.50
2023-02-27T02:43:13.178Z,10.30
2023-02-27T02:45:56.030Z,10.60
2023-02-27T02:48:37.703Z,7.70
2023-02-27T02:51:20.088Z,13.30
2023-02-27T02:54:01.826Z,11.30
2023-02-27T02:56:40.996Z,10.90
2023-02-27T02:59:19.608Z,9.40
2023-02-27T03:01:58.416Z,11.20
2023-02-27T03:04:41.064Z,9.80
2023-02-27T03:07:22.796Z,9.40
2023-02-27T03:10:05.337Z,6.70
2023-02-27T03:12:41.296Z,7.30
2023-02-27T03:15:19.776Z,12.00
2023-02-27T03:18:01.864Z,10.70
2023-02-27T03:20:39.956Z,10.30
2023-02-27T03:23:19.341Z,6.50
2023-02-27T03:25:56.612Z,6.70
2023-02-27T03:28:37.111Z,8.00
2023-02-27T03:31:15.595Z,7.10
2023-02-27T03:33:55.154Z,9.60
2023-02-27T03:36:45.389Z,10.20
2023-02-27T03:39:32.777Z,6.50
2023-02-27T03:42:16.397Z,8.10
2023-02-27T03:45:21.640Z,7.10
2023-02-27T03:47:55.278Z,9.10
2023-02-27T03:50:28.521Z,8.40
2023-02-27T03:53:02.281Z,6.30
2023-02-27T03:55:41.419Z,10.10
2023-02-27T03:58:14.685Z,7.30
2023-02-27T04:00:47.908Z,7.20
2023-02-27T04:03:21.494Z,6.50
2023-02-27T04:05:55.357Z,9.30
2023-02-27T04:08:57.628Z,9.80
2023-02-27T04:11:52.828Z,8.10
2023-02-27T04:14:46.514Z,7.40
2023-02-27T04:17:25.915Z,9.70
2023-02-27T04:20:31.361Z,8.00
2023-02-27T04:23:07.914Z,7.60
2023-02-27T04:25:56.107Z,9.10
2023-02-27T04:28:41.856Z,5.30
2023-02-27T04:31:20.183Z,5.60
2023-02-27T04:34:00.408Z,6.40
2023-02-27T04:36:39.236Z,7.90
2023-02-27T04:39:21.234Z,8.10
2023-02-27T04:41:59.925Z,9.70
2023-02-27T04:44:36.274Z,5.80
2023-02-27T04:47:12.738Z,9.50
2023-02-27T04:49:51.752Z,8.60
2023-02-27T04:52:29.499Z,6.60
2023-02-27T04:55:11.362Z,11.00
2023-02-27T04:57:51.314Z,7.80
2023-02-27T05:00:27.419Z,8.70
2023-02-27T05:03:11.176Z,7.70
2023-02-27T05:05:47.591Z,7.40
2023-02-27T05:08:27.890Z,6.50
2023-02-27T05:11:09.445Z,7.80
2023-02-27T05:13:48.234Z,7.10
2023-02-27T05:16:28.214Z,6.70
2023-02-27T05:19:03.176Z,6.80
2023-02-27T05:21:42.547Z,13.30
2023-02-27T05:24:25.343Z,12.10
2023-02-27T05:27:21.525Z,6.90
2023-02-27T05:29:57.750Z,8.00
2023-02-27T05:32:41.047Z,7.20
2023-02-27T05:35:27.340Z,8.40
2023-02-27T05:38:10.882Z,5.20
2023-02-27T05:40:48.297Z,9.60
2023-02-27T05:43:27.619Z,8.60
2023-02-27T05:46:06.757Z,12.10
2023-02-27T05:48:44.742Z,9.00
2023-02-27T05:51:20.997Z,8.30
2023-02-27T05:53:59.731Z,7.40
2023-02-27T05:56:35.036Z,8.60
2023-02-27T05:59:12.965Z,7.70
2023-02-27T06:01:46.578Z,9.20
2023-02-27T06:04:19.823Z,13.20
2023-02-27T06:06:53.192Z,9.10
2023-02-27T06:09:26.269Z,8.20
2023-02-27T06:12:00.380Z,10.60
2023-02-27T06:14:33.489Z,10.90
2023-02-27T06:17:07.167Z,8.00
2023-02-27T06:19:40.250Z,11.80
2023-02-27T06:22:13.772Z,10.50
2023-02-27T06:24:46.943Z,6.90
2023-02-27T06:27:20.108Z,10.50
2023-02-27T06:29:53.761Z,8.60
2023-02-27T06:32:27.069Z,9.20
2023-02-27T06:35:00.241Z,10.70
2023-02-27T06:37:33.332Z,8.60
2023-02-27T06:40:11.668Z,8.30
2023-02-27T06:42:46.021Z,8.60
2023-02-27T06:45:20.013Z,7.70
2023-02-27T06:47:53.272Z,8.70
2023-02-27T06:50:26.403Z,10.30
2023-02-27T06:52:59.645Z,7.10
2023-02-27T06:55:32.722Z,7.00
2023-02-27T06:58:06.132Z,7.10
2023-02-27T07:00:39.326Z,6.90
2023-02-27T07:03:13.644Z,8.30
2023-02-27T07:05:46.863Z,12.10
2023-02-27T07:08:20.068Z,9.50
2023-02-27T07:10:53.423Z,17.10
2023-02-27T07:13:26.574Z,11.30
2023-02-27T07:15:59.605Z,6.50
2023-02-27T07:18:32.660Z,6.40
2023-02-27T07:21:05.882Z,8.60
2023-02-27T07:23:39.020Z,8.50
2023-02-27T07:26:12.281Z,11.60
2023-02-27T07:28:45.499Z,11.50
2023-02-27T07:31:19.092Z,10.40
2023-02-27T07:33:52.215Z,9.30
2023-02-27T07:36:26.061Z,8.70
2023-02-27T07:38:59.609Z,8.40
2023-02-27T07:41:32.694Z,10.80
2023-02-27T07:44:08.803Z,9.50
2023-02-27T07:46:41.949Z,9.20
2023-02-27T07:49:15.990Z,12.10
2023-02-27T07:51:49.287Z,10.40
2023-02-27T07:54:22.666Z,10.70
2023-02-27T07:56:55.703Z,10.40
2023-02-27T07:59:28.914Z,13.70
2023-02-27T08:02:02.023Z,12.30
2023-02-27T08:04:35.180Z,12.30
2023-02-27T08:07:08.682Z,10.40
2023-02-27T08:09:41.729Z,8.80
2023-02-27T08:12:14.766Z,12.20
2023-02-27T08:14:47.853Z,15.00
2023-02-27T08:17:21.199Z,8.20
2023-02-27T08:19:54.319Z,10.60
2023-02-27T08:22:27.352Z,7.60
2023-02-27T08:25:01.335Z,9.80
2023-02-27T08:27:34.461Z,7.80
2023-02-27T08:30:10.467Z,11.10
2023-02-27T08:32:44.008Z,9.60
2023-02-27T08:35:17.621Z,13.70
2023-02-27T08:37:50.846Z,8.20
2023-02-27T08:40:25.731Z,10.00
2023-02-27T08:42:58.805Z,10.70
2023-02-27T08:45:31.998Z,6.90
2023-02-27T08:48:05.237Z,12.10
2023-02-27T08:50:38.402Z,8.90
2023-02-27T08:53:12.012Z,8.20
2023-02-27T08:55:45.136Z,7.20
2023-02-27T08:58:18.442Z,7.20
2023-02-27T09:00:51.612Z,9.50
2023-02-27T09:03:28.869Z,10.20
2023-02-27T09:06:02.127Z,7.10
2023-02-27T09:08:35.265Z,5.60
2023-02-27T09:11:08.967Z,8.30
2023-02-27T09:13:42.091Z,10.20
2023-02-27T09:16:15.154Z,7.40
2023-02-27T09:18:48.550Z,4.70
2023-02-27T09:21:22.820Z,8.50
2023-02-27T09:24:02.487Z,8.70
2023-02-27T09:26:45.896Z,7.10
2023-02-27T09:29:19.612Z,6.20
2023-02-27T09:31:53.547Z,7.50
2023-02-27T09:34:27.056Z,11.70
2023-02-27T09:37:03.272Z,10.60
2023-02-27T09:39:36.472Z,6.00
2023-02-27T09:42:17.313Z,6.80
2023-02-27T09:44:53.414Z,7.20
2023-02-27T09:47:35.031Z,7.90
2023-02-27T09:50:20.722Z,8.20
2023-02-27T09:52:53.887Z,7.40
2023-02-27T09:55:31.508Z,7.40
2023-02-27T09:58:09.411Z,7.80
2023-02-27T10:01:07.492Z,6.20
2023-02-27T10:04:02.682Z,7.40
2023-02-27T10:06:43.727Z,7.80
2023-02-27T10:09:35.722Z,6.90
2023-02-27T10:12:36.228Z,5.50
2023-02-27T10:15:17.858Z,8.50
2023-02-27T10:17:54.499Z,5.80
2023-02-27T10:20:32.496Z,6.90
2023-02-27T10:23:13.038Z,8.50
2023-02-27T10:28:25.394Z,9.10
2023-02-27T10:31:01.327Z,7.30
2023-02-27T10:33:39.850Z,6.60
2023-02-27T10:36:30.629Z,11.00
2023-02-27T10:39:10.227Z,10.20
2023-02-27T10:41:44.616Z,7.40
2023-02-27T10:44:20.585Z,11.00
2023-02-27T10:46:53.833Z,6.50
2023-02-27T10:49:30.229Z,7.80
2023-02-27T10:52:14.455Z,4.90
2023-02-27T10:54:48.513Z,7.50
2023-02-27T10:57:34.494Z,5.10
2023-02-27T11:00:24.645Z,9.20
2023-02-27T11:02:58.754Z,7.40
2023-02-27T11:05:34.441Z,6.80
2023-02-27T11:08:24.933Z,6.60
2023-02-27T11:11:04.588Z,6.70
2023-02-27T11:13:40.412Z,5.00
2023-02-27T11:16:17.709Z,6.50
2023-02-27T11:18:54.501Z,7.10
2023-02-27T11:21:31.116Z,10.10
2023-02-27T11:24:08.204Z,6.50
2023-02-27T11:26:55.361Z,4.20
2023-02-27T11:29:29.177Z,5.40
2023-02-27T11:32:06.494Z,4.80
2023-02-27T11:34:47.843Z,6.90
2023-02-27T11:37:32.211Z,7.00
2023-02-27T11:40:19.272Z,7.70
2023-02-27T11:42:56.662Z,3.60
2023-02-27T11:46:10.753Z,5.50
2023-02-27T11:48:37.709Z,4.50
2023-02-27T11:51:52.221Z,3.10
2023-02-27T11:54:37.547Z,5.80
2023-02-27T11:57:25.098Z,4.20
2023-02-27T12:00:06.676Z,5.30
2023-02-27T12:02:55.447Z,5.00
2023-02-27T12:05:32.345Z,5.90
2023-02-27T12:08:13.226Z,7.70
2023-02-27T12:11:07.747Z,8.50
2023-02-27T12:13:50.938Z,9.80
2023-02-27T12:16:33.110Z,6.60
2023-02-27T12:19:17.312Z,6.80
2023-02-27T12:21:54.574Z,5.80
2023-02-27T12:24:33.614Z,5.90
2023-02-27T12:27:18.700Z,5.90
2023-02-27T12:29:56.329Z,8.90
2023-02-27T12:32:39.584Z,8.10
2023-02-27T12:35:21.434Z,6.20
2023-02-27T12:37:55.136Z,4.40
2023-02-27T12:40:37.794Z,3.40
2023-02-27T12:43:29.368Z,2.50
2023-02-27T12:46:25.550Z,2.10
2023-02-27T12:49:17.247Z,2.70
2023-02-27T12:52:05.266Z,2.80
2023-02-27T12:54:58.258Z,1.90
2023-02-27T12:57:47.933Z,1.80
2023-02-27T13:00:26.656Z,1.30
2023-02-27T13:03:13.261Z,3.50
2023-02-27T13:05:59.313Z,4.50
2023-02-27T13:09:03.670Z,2.30
2023-02-27T13:11:53.161Z,4.70
2023-02-27T13:14:40.758Z,6.70
2023-02-27T13:17:24.129Z,5.10
2023-02-27T13:20:02.613Z,5.30
2023-02-27T13:22:45.028Z,8.50
2023-02-27T13:25:21.016Z,5.30
2023-02-27T13:28:00.433Z,6.30
2023-02-27T13:30:37.906Z,6.20
2023-02-27T13:33:26.412Z,4.40
2023-02-27T13:36:19.132Z,6.40
2023-02-27T13:38:54.309Z,5.60
2023-02-27T13:41:43.027Z,4.40
2023-02-27T13:44:44.566Z,5.90
2023-02-27T13:47:48.925Z,11.60
2023-02-27T13:50:55.056Z,9.50
2023-02-27T13:53:29.282Z,11.10
2023-02-27T13:56:22.176Z,7.40
2023-02-27T13:58:57.870Z,9.60
2023-02-27T14:01:35.255Z,11.10
2023-02-27T14:04:19.036Z,8.40
2023-02-27T14:06:52.596Z,6.20
2023-02-27T14:09:26.225Z,11.00
2023-02-27T14:12:03.845Z,9.70
2023-02-27T14:14:50.969Z,10.20
2023-02-27T14:17:49.582Z,8.20
2023-02-27T14:20:54.442Z,10.40
2023-02-27T14:23:29.418Z,9.60
2023-02-27T14:26:07.427Z,10.00
2023-02-27T14:28:49.146Z,9.40
2023-02-27T14:31:29.561Z,9.10
2023-02-27T14:34:06.032Z,18.70
2023-02-27T14:36:47.598Z,10.20
2023-02-27T14:39:28.176Z,8.10
2023-02-27T14:44:54.271Z,7.60
2023-02-27T14:47:34.723Z,8.40
2023-02-27T14:52:47.479Z,6.30
2023-02-27T14:55:28.283Z,7.10
2023-02-27T14:58:11.080Z,8.20
2023-02-27T15:00:50.716Z,6.70
2023-02-27T15:03:26.638Z,5.90
2023-02-27T15:06:03.985Z,8.40
2023-02-27T15:08:42.540Z,6.10
2023-02-27T15:11:21.104Z,6.00
2023-02-27T15:14:00.223Z,6.70
2023-02-27T15:16:40.656Z,6.80
2023-02-27T15:19:23.178Z,6.30
2023-02-27T15:21:59.974Z,7.70
2023-02-27T15:24:49.323Z,6.30
2023-02-27T15:27:26.793Z,7.40
2023-02-27T15:30:01.953Z,10.60
2023-02-27T15:32:37.692Z,7.10
2023-02-27T15:35:20.617Z,5.80
2023-02-27T15:37:57.798Z,7.10
2023-02-27T15:40:34.168Z,6.40
2023-02-27T15:43:08.993Z,4.90
2023-02-27T15:45:43.376Z,5.40
2023-02-27T15:48:18.905Z,8.90
2023-02-27T15:50:56.340Z,4.60
2023-02-27T15:53:34.301Z,11.80
2023-02-27T15:56:14.270Z,9.30
2023-02-27T15:58:54.673Z,8.30
2023-02-27T16:01:30.879Z,7.10
2023-02-27T16:04:07.256Z,8.40
2023-02-27T16:06:42.475Z,9.30
2023-02-27T16:09:28.864Z,13.70
2023-02-27T16:12:34.903Z,10.40
2023-02-27T16:15:34.910Z,8.60
2023-02-27T16:18:29.653Z,11.30
2023-02-27T16:21:15.813Z,12.40
2023-02-27T16:23:50.084Z,13.30
2023-02-27T16:26:31.905Z,13.20
2023-02-27T16:29:08.485Z,10.40
2023-02-27T16:31:47.638Z,10.50
2023-02-27T16:34:44.264Z,13.60
2023-02-27T16:37:27.705Z,17.70
2023-02-27T16:40:02.296Z,21.10
2023-02-27T16:42:35.467Z,14.70
2023-02-27T16:45:17.811Z,17.20
2023-02-27T16:47:53.855Z,13.30
2023-02-27T16:50:32.646Z,11.60
2023-02-27T16:53:05.865Z,12.20
2023-02-27T16:55:44.032Z,9.40
2023-02-27T16:58:19.112Z,12.80
2023-02-27T17:00:52.280Z,12.00
2023-02-27T17:03:25.426Z,10.00
2023-02-27T17:05:59.121Z,9.70
2023-02-27T17:08:32.691Z,13.10
2023-02-27T17:11:06.418Z,12.70
2023-02-27T17:13:41.330Z,11.00
2023-02-27T17:16:15.703Z,15.20
2023-02-27T17:18:48.961Z,15.00
2023-02-27T17:21:22.089Z,15.10
2023-02-27T17:23:55.276Z,9.10
2023-02-27T17:26:29.083Z,10.20
2023-02-27T17:29:02.926Z,7.40
2023-02-27T17:31:36.361Z,16.20
2023-02-27T17:34:10.129Z,10.50
2023-02-27T17:36:43.260Z,12.90
2023-02-27T17:39:17.700Z,12.40
2023-02-27T17:41:53.160Z,7.80
2023-02-27T17:44:27.193Z,9.60
2023-02-27T17:47:00.423Z,14.90
2023-02-27T17:49:33.634Z,12.70
2023-02-27T17:52:08.151Z,11.70
2023-02-27T17:54:41.523Z,12.00
2023-02-27T17:57:14.750Z,14.20
2023-02-27T17:59:47.972Z,13.80
2023-02-27T18:02:21.029Z,12.10
2023-02-27T18:04:54.741Z,13.90
2023-02-27T18:07:27.872Z,12.00
2023-02-27T18:10:01.605Z,19.60
2023-02-27T18:12:34.841Z,10.50
2023-02-27T18:15:10.276Z,12.40
2023-02-27T18:17:44.527Z,10.80
2023-02-27T18:20:18.568Z,19.40
2023-02-27T18:22:51.806Z,11.80
2023-02-27T18:25:25.087Z,13.90
2023-02-27T18:28:01.455Z,17.80
2023-02-27T18:30:38.581Z,18.20
2023-02-27T18:33:12.720Z,18.00
2023-02-27T18:35:46.034Z,24.40
2023-02-27T18:38:19.430Z,24.80
2023-02-27T18:40:52.723Z,21.90
2023-02-27T18:43:27.111Z,26.40
2023-02-27T18:46:00.738Z,24.20
2023-02-27T18:48:34.037Z,32.70
2023-02-27T18:51:12.401Z,37.80
2023-02-27T18:53:48.876Z,29.00
2023-02-27T18:56:25.024Z,28.30
2023-02-27T18:59:05.424Z,23.30
2023-02-27T19:04:12.204Z,26.20
2023-02-27T19:06:45.949Z,23.40
2023-02-27T19:09:21.918Z,24.30
2023-02-27T19:11:55.223Z,18.20
2023-02-27T19:14:28.753Z,22.40
2023-02-27T19:17:01.879Z,22.90
2023-02-27T19:19:35.619Z,25.80
2023-02-27T19:22:09.006Z,26.30
2023-02-27T19:24:42.322Z,32.90
2023-02-27T19:27:17.337Z,26.80
2023-02-27T19:29:50.574Z,24.60
2023-02-27T19:32:24.404Z,27.60
2023-02-27T19:34:57.745Z,28.50
2023-02-27T19:37:30.917Z,22.00
2023-02-27T19:40:04.262Z,27.60
2023-02-27T19:42:37.580Z,20.90
2023-02-27T19:45:12.721Z,23.90
2023-02-27T19:47:46.833Z,28.80
2023-02-27T19:50:20.781Z,20.00
2023-02-27T19:52:53.957Z,23.50
2023-02-27T19:55:27.861Z,29.70
2023-02-27T19:58:01.740Z,29.60
2023-02-27T20:00:35.026Z,30.30
2023-02-27T20:03:08.361Z,28.60
2023-02-27T20:05:45.679Z,22.00
2023-02-27T20:08:19.169Z,26.50
2023-02-27T20:11:00.669Z,31.70
2023-02-27T20:13:34.551Z,29.80
2023-02-27T20:16:11.572Z,31.30
2023-02-27T20:18:45.260Z,29.70
2023-02-27T20:21:21.574Z,23.20
2023-02-27T20:23:56.001Z,37.30
2023-02-27T20:26:32.310Z,43.20
2023-02-27T20:29:10.033Z,36.80
2023-02-27T20:31:46.558Z,43.60
2023-02-27T20:34:22.643Z,34.30
2023-02-27T20:36:57.798Z,40.50
2023-02-27T20:39:31.234Z,45.50
2023-02-27T20:42:04.684Z,65.90
2023-02-27T20:44:38.385Z,52.60
2023-02-27T20:47:12.097Z,72.60
2023-02-27T20:49:45.288Z,74.90
2023-02-27T20:52:18.542Z,47.40
2023-02-27T20:54:51.712Z,52.00
2023-02-27T20:57:25.066Z,51.60
2023-02-27T20:59:58.241Z,40.60
2023-02-27T21:02:31.459Z,40.60
2023-02-27T21:05:04.911Z,48.50
2023-02-27T21:07:38.090Z,45.10
2023-02-27T21:10:13.655Z,43.80
2023-02-27T21:12:46.724Z,32.00
2023-02-27T21:15:20.324Z,29.90
2023-02-27T21:17:53.454Z,35.60
2023-02-27T21:20:26.867Z,29.30
2023-02-27T21:22:59.960Z,24.00
2023-02-27T21:25:33.192Z,30.80
2023-02-27T21:28:07.264Z,23.10
2023-02-27T21:30:40.736Z,18.90
2023-02-27T21:33:14.008Z,18.00
2023-02-27T21:35:51.236Z,22.60
2023-02-27T21:38:24.688Z,21.10
2023-02-27T21:40:59.470Z,21.40
2023-02-27T21:43:32.640Z,21.20
2023-02-27T21:46:11.308Z,22.20
2023-02-27T21:48:44.734Z,29.10
2023-02-27T21:51:26.717Z,27.80
2023-02-27T21:54:11.308Z,27.90
2023-02-27T21:56:46.416Z,25.80
2023-02-27T21:59:22.016Z,22.40
2023-02-27T22:01:55.210Z,25.40
2023-02-27T22:04:28.671Z,32.20
2023-02-27T22:07:02.036Z,30.00
2023-02-27T22:09:35.144Z,27.90
2023-02-27T22:12:09.307Z,23.90
2023-02-27T22:14:43.402Z,27.70
2023-02-27T22:17:16.622Z,24.00
2023-02-27T22:19:49.964Z,25.10
2023-02-27T22:22:23.166Z,23.40
2023-02-27T22:24:56.554Z,30.40
2023-02-27T22:27:31.321Z,30.70
2023-02-27T22:30:04.489Z,26.80
2023-02-27T22:32:41.141Z,24.00
2023-02-27T22:35:14.348Z,21.30
2023-02-27T22:37:47.596Z,19.20
2023-02-27T22:40:21.318Z,21.00
2023-02-27T22:42:54.619Z,21.50
2023-02-27T22:45:27.845Z,18.70
2023-02-27T22:48:01.029Z,24.50
2023-02-27T22:50:34.332Z,30.40
2023-02-27T22:53:07.449Z,26.40
2023-02-27T22:55:40.559Z,28.30
2023-02-27T22:58:13.805Z,28.70
2023-02-27T23:00:47.242Z,31.30
2023-02-27T23:03:20.594Z,23.30
2023-02-27T23:05:53.779Z,29.10
2023-02-27T23:08:26.973Z,24.00
2023-02-27T23:11:01.185Z,39.50
2023-02-27T23:13:34.403Z,48.30
2023-02-27T23:16:11.833Z,46.40
2023-02-27T23:18:47.467Z,42.40
2023-02-27T23:21:24.257Z,42.80
2023-02-27T23:23:57.791Z,38.90
2023-02-27T23:26:30.933Z,43.10
2023-02-27T23:29:03.948Z,48.70
2023-02-27T23:31:38.154Z,49.30
2023-02-27T23:34:11.799Z,49.10
2023-02-27T23:36:45.094Z,39.30
2023-02-27T23:39:18.174Z,37.00
2023-02-27T23:41:51.305Z,37.70
2023-02-27T23:44:24.557Z,38.30
2023-02-27T23:46:57.740Z,45.60
2023-02-27T23:49:30.870Z,54.70
2023-02-27T23:52:03.964Z,41.50
2023-02-27T23:54:37.709Z,47.90
2023-02-27T23:57:10.840Z,43.90
2023-02-27T23:59:43.838Z,41.70
